createdAt,value
2023-03-05T00:00:44.159Z,101521.53
2023-03-05T00:03:14.567Z,101516.97
2023-03-05T00:05:45.475Z,101522.53
2023-03-05T00:08:15.861Z,101529.88
2023-03-05T00:10:46.063Z,101533.25
2023-03-05T00:13:16.281Z,101531.19
2023-03-05T00:15:46.672Z,101543.28
2023-03-05T00:18:16.899Z,101546.63
2023-03-05T00:20:47.393Z,101545.44
2023-03-05T00:23:17.866Z,101552.31
2023-03-05T00:25:48.289Z,101551.28
2023-03-05T00:28:18.511Z,101555.50
2023-03-05T00:30:48.890Z,101563.41
2023-03-05T00:33:19.466Z,101563.03
2023-03-05T00:35:49.803Z,101563.69
2023-03-05T00:38:20.308Z,101573.25
2023-03-05T00:40:52.284Z,101576.78
2023-03-05T00:43:22.698Z,101569.16
2023-03-05T00:45:52.986Z,101571.47
2023-03-05T00:48:27.220Z,101579.44
2023-03-05T00:50:58.312Z,101584.66
2023-03-05T00:53:28.849Z,101584.13
2023-03-05T00:55:59.791Z,101587.47
2023-03-05T00:58:33.246Z,101592.69
2023-03-05T01:01:04.216Z,101590.44
2023-03-05T01:03:35.584Z,101589.06
2023-03-05T01:06:08.592Z,101595.75
2023-03-05T01:08:39.063Z,101601.44
2023-03-05T01:11:10.662Z,101601.72
2023-03-05T01:13:41.397Z,101604.06
2023-03-05T01:16:12.460Z,101602.63
2023-03-05T01:18:42.743Z,101613.66
2023-03-05T01:21:13.152Z,101607.88
2023-03-05T01:23:43.500Z,101607.50
2023-03-05T01:26:14.261Z,101614.59
2023-03-05T01:28:44.983Z,101616.47
2023-03-05T01:31:15.746Z,101622.31
2023-03-05T01:33:46.358Z,101625.84
2023-03-05T01:36:18.383Z,101620.38
2023-03-05T01:38:49.478Z,101628.28
2023-03-05T01:41:20.633Z,101628.75
2023-03-05T01:43:51.339Z,101620.91
2023-03-05T01:46:32.667Z,101629.66
2023-03-05T01:49:17.309Z,101631.59
2023-03-05T01:51:56.478Z,101632.09
2023-03-05T01:54:30.065Z,101634.16
2023-03-05T01:57:02.098Z,101639.19
2023-03-05T01:59:32.947Z,101634.22
2023-03-05T02:02:04.124Z,101632.19
2023-03-05T02:04:38.136Z,101638.03
2023-03-05T02:07:09.114Z,101634.97
2023-03-05T02:09:41.230Z,101640.00
2023-03-05T02:12:13.322Z,101646.03
2023-03-05T02:14:45.361Z,101640.25
2023-03-05T02:17:15.791Z,101637.38
2023-03-05T02:19:54.319Z,101643.25
2023-03-05T02:22:25.586Z,101640.16
2023-03-05T02:24:55.952Z,101642.66
2023-03-05T02:27:36.162Z,101637.91
2023-03-05T02:30:06.521Z,101636.69
2023-03-05T02:32:36.772Z,101634.66
2023-03-05T02:35:08.605Z,101642.56
2023-03-05T02:37:39.047Z,101639.69
2023-03-05T02:40:11.680Z,101639.28
2023-03-05T02:42:42.468Z,101639.16
2023-03-05T02:45:15.305Z,101640.59
2023-03-05T02:47:45.751Z,101638.56
2023-03-05T02:50:15.992Z,101647.31
2023-03-05T02:52:46.821Z,101639.88
2023-03-05T02:55:19.224Z,101636.13
2023-03-05T02:57:49.652Z,101629.50
2023-03-05T03:00:20.585Z,101624.94
2023-03-05T03:02:50.934Z,101605.22
2023-03-05T03:05:21.310Z,101627.91
2023-03-05T03:07:51.685Z,101642.06
2023-03-05T03:10:21.920Z,101630.06
2023-03-05T03:12:52.188Z,101621.75
2023-03-05T03:15:22.493Z,101624.25
2023-03-05T03:17:53.129Z,101620.53
2023-03-05T03:20:23.810Z,101622.00
2023-03-05T03:22:54.666Z,101612.84
2023-03-05T03:25:25.516Z,101584.16
2023-03-05T03:27:55.747Z,101610.81
2023-03-05T03:30:26.038Z,101601.28
2023-03-05T03:32:56.338Z,101597.56
2023-03-05T03:35:26.790Z,101594.47
2023-03-05T03:37:57.067Z,101584.94
2023-03-05T03:40:27.574Z,101588.28
2023-03-05T03:42:57.943Z,101583.25
2023-03-05T03:45:28.900Z,101584.03
2023-03-05T03:47:59.163Z,101567.66
2023-03-05T03:50:29.417Z,101564.06
2023-03-05T03:52:59.627Z,101558.50
2023-03-05T03:55:29.842Z,101556.44
2023-03-05T03:58:00.045Z,101557.28
2023-03-05T04:00:30.357Z,101556.22
2023-03-05T04:03:00.665Z,101544.59
2023-03-05T04:05:30.914Z,101545.03
2023-03-05T04:08:02.847Z,101535.25
2023-03-05T04:10:32.998Z,101531.72
2023-03-05T04:13:03.128Z,101532.56
2023-03-05T04:15:33.943Z,101532.81
2023-03-05T04:18:04.164Z,101513.66
2023-03-05T04:20:34.527Z,101506.22
2023-03-05T04:23:04.795Z,101497.69
2023-03-05T04:25:35.219Z,101494.81
2023-03-05T04:28:05.930Z,101478.59
2023-03-05T04:30:36.210Z,101485.94
2023-03-05T04:33:06.514Z,101485.13
2023-03-05T04:35:37.424Z,101475.41
2023-03-05T04:38:08.138Z,101477.13
2023-03-05T04:40:38.598Z,101462.16
2023-03-05T04:43:09.214Z,101465.09
2023-03-05T04:45:43.774Z,101460.97
2023-03-05T04:48:14.629Z,101450.56
2023-03-05T04:50:44.965Z,101437.47
2023-03-05T04:53:15.173Z,101436.03
2023-03-05T04:55:45.707Z,101423.97
2023-03-05T04:58:15.966Z,101429.81
2023-03-05T05:00:46.755Z,101424.00
2023-03-05T05:03:17.113Z,101421.97
2023-03-05T05:05:47.317Z,101408.03
2023-03-05T05:08:17.881Z,101413.22
2023-03-05T05:10:48.146Z,101400.31
2023-03-05T05:13:18.395Z,101404.50
2023-03-05T05:15:48.725Z,101402.41
2023-03-05T05:18:19.018Z,101394.91
2023-03-05T05:20:49.454Z,101389.91
2023-03-05T05:23:20.543Z,101387.63
2023-03-05T05:26:01.288Z,101384.91
2023-03-05T05:28:31.920Z,101380.13
2023-03-05T05:31:02.183Z,101377.44
2023-03-05T05:33:32.428Z,101384.06
2023-03-05T05:36:04.431Z,101366.78
2023-03-05T05:38:35.093Z,101363.91
2023-03-05T05:41:15.100Z,101349.94
2023-03-05T05:43:45.705Z,101355.34
2023-03-05T05:46:18.935Z,101357.47
2023-03-05T05:48:49.752Z,101342.03
2023-03-05T05:51:22.717Z,101340.72
2023-03-05T05:53:53.134Z,101327.72
2023-03-05T05:56:23.658Z,101322.25
2023-03-05T05:58:53.997Z,101327.19
2023-03-05T06:01:29.648Z,101316.56
2023-03-05T06:04:00.133Z,101314.19
2023-03-05T06:06:30.968Z,101312.53
2023-03-05T06:09:01.572Z,101303.56
2023-03-05T06:11:31.892Z,101307.91
2023-03-05T06:14:04.354Z,101300.41
2023-03-05T06:16:35.228Z,101290.81
2023-03-05T06:19:05.903Z,101287.09
2023-03-05T06:21:36.138Z,101281.66
2023-03-05T06:24:06.568Z,101282.88
2023-03-05T06:26:36.848Z,101272.47
2023-03-05T06:29:07.145Z,101264.38
2023-03-05T06:31:38.240Z,101262.69
2023-03-05T06:34:08.494Z,101249.81
2023-03-05T06:36:38.797Z,101246.69
2023-03-05T06:39:09.412Z,101242.53
2023-03-05T06:41:39.735Z,101235.50
2023-03-05T06:44:10.457Z,101224.25
2023-03-05T06:46:40.779Z,101225.91
2023-03-05T06:49:12.176Z,101213.25
2023-03-05T06:51:42.799Z,101210.97
2023-03-05T06:54:14.713Z,101202.84
2023-03-05T06:56:46.540Z,101206.19
2023-03-05T06:59:18.302Z,101189.34
2023-03-05T07:01:49.040Z,101192.28
2023-03-05T07:04:19.815Z,101181.47
2023-03-05T07:06:49.960Z,101171.31
2023-03-05T07:09:20.176Z,101161.56
2023-03-05T07:11:50.426Z,101157.41
2023-03-05T07:14:20.827Z,101158.03
2023-03-05T07:16:51.914Z,101153.28
2023-03-05T07:19:22.702Z,101148.69
2023-03-05T07:21:52.920Z,101150.81
2023-03-05T07:24:23.213Z,101142.47
2023-03-05T07:26:53.366Z,101144.56
2023-03-05T07:29:25.129Z,101131.25
2023-03-05T07:31:56.013Z,101129.19
2023-03-05T07:34:27.329Z,101117.97
2023-03-05T07:36:57.698Z,101120.25
2023-03-05T07:39:28.155Z,101112.34
2023-03-05T07:41:58.614Z,101116.53
2023-03-05T07:44:33.670Z,101107.19
2023-03-05T07:47:03.999Z,101104.72
2023-03-05T07:49:34.847Z,101108.06
2023-03-05T07:52:05.225Z,101102.66
2023-03-05T07:54:39.119Z,101093.91
2023-03-05T07:57:10.208Z,101099.72
2023-03-05T07:59:40.833Z,101096.41
2023-03-05T08:02:14.690Z,101050.66
2023-03-05T08:04:45.061Z,101099.50
2023-03-05T08:07:18.805Z,101100.13
2023-03-05T08:09:49.192Z,101095.56
2023-03-05T08:12:19.843Z,101105.53
2023-03-05T08:14:50.070Z,101098.44
2023-03-05T08:17:20.891Z,101092.66
2023-03-05T08:19:51.262Z,101085.75
2023-03-05T08:22:21.922Z,101087.25
2023-03-05T08:24:53.527Z,101088.88
2023-03-05T08:27:23.850Z,101088.47
2023-03-05T08:29:54.531Z,101079.31
2023-03-05T08:32:24.970Z,101091.38
2023-03-05T08:34:59.998Z,101088.03
2023-03-05T08:37:30.846Z,101094.66
2023-03-05T08:40:01.501Z,101088.38
2023-03-05T08:42:32.373Z,101088.81
2023-03-05T08:45:03.134Z,101083.41
2023-03-05T08:47:33.522Z,101092.56
2023-03-05T08:50:03.680Z,101088.38
2023-03-05T08:52:33.843Z,101089.63
2023-03-05T08:55:04.063Z,101089.63
2023-03-05T08:57:34.303Z,101094.19
2023-03-05T09:00:04.593Z,101092.53
2023-03-05T09:02:35.246Z,101093.31
2023-03-05T09:05:05.799Z,101093.75
2023-03-05T09:07:36.073Z,101089.19
2023-03-05T09:10:07.172Z,101097.91
2023-03-05T09:12:37.448Z,101102.09
2023-03-05T09:15:09.772Z,101100.22
2023-03-05T09:17:40.677Z,101112.44
2023-03-05T09:20:13.366Z,101106.97
2023-03-05T09:22:43.799Z,101110.66
2023-03-05T09:25:14.844Z,101115.59
2023-03-05T09:27:46.734Z,101114.28
2023-03-05T09:30:17.027Z,101111.28
2023-03-05T09:32:47.303Z,101119.16
2023-03-05T09:35:18.472Z,101123.50
2023-03-05T09:37:48.837Z,101122.41
2023-03-05T09:40:21.129Z,101131.88
2023-03-05T09:43:01.557Z,101135.59
2023-03-05T09:45:34.600Z,101137.41
2023-03-05T09:48:14.991Z,101135.94
2023-03-05T09:51:01.089Z,101132.94
2023-03-05T09:53:54.176Z,101139.19
2023-03-05T09:56:37.980Z,101138.72
2023-03-05T09:59:26.957Z,101141.00
2023-03-05T10:02:26.517Z,101139.09
2023-03-05T10:05:02.218Z,101143.25
2023-03-05T10:07:34.005Z,101146.66
2023-03-05T10:10:07.458Z,101145.44
2023-03-05T10:12:44.266Z,101143.34
2023-03-05T10:15:21.599Z,101144.97
2023-03-05T10:18:11.319Z,101149.97
2023-03-05T10:20:57.782Z,101146.22
2023-03-05T10:23:30.911Z,101152.69
2023-03-05T10:26:01.199Z,101157.06
2023-03-05T10:28:44.240Z,101154.19
2023-03-05T10:31:26.205Z,101159.25
2023-03-05T10:34:09.876Z,101169.69
2023-03-05T10:37:00.805Z,101166.59
2023-03-05T10:39:49.234Z,101177.06
2023-03-05T10:42:25.726Z,101172.69
2023-03-05T10:44:58.045Z,101183.53
2023-03-05T10:47:46.873Z,101183.97
2023-03-05T10:50:21.977Z,101185.88
2023-03-05T10:53:12.362Z,101193.41
2023-03-05T10:55:43.115Z,101205.56
2023-03-05T10:58:17.078Z,101212.00
2023-03-05T11:01:07.442Z,101204.94
2023-03-05T11:03:51.666Z,101206.41
2023-03-05T11:06:32.048Z,101210.78
2023-03-05T11:09:20.442Z,101217.47
2023-03-05T11:12:11.694Z,101217.91
2023-03-05T11:14:43.883Z,101223.78
2023-03-05T11:17:34.146Z,101225.63
2023-03-05T11:20:22.381Z,101219.59
2023-03-05T11:23:06.104Z,101228.78
2023-03-05T11:25:37.840Z,101233.16
2023-03-05T11:28:08.186Z,101232.13
2023-03-05T11:30:38.678Z,101229.59
2023-03-05T11:33:21.743Z,101237.97
2023-03-05T11:35:53.636Z,101238.19
2023-03-05T11:38:26.688Z,101243.00
2023-03-05T11:40:57.976Z,101243.84
2023-03-05T11:43:28.208Z,101253.44
2023-03-05T11:46:03.904Z,101209.78
2023-03-05T11:48:38.028Z,101256.16
2023-03-05T11:51:31.245Z,101262.66
2023-03-05T11:54:08.451Z,101265.56
2023-03-05T11:56:39.222Z,101273.94
2023-03-05T11:59:15.653Z,101268.50
2023-03-05T12:01:53.010Z,101275.38
2023-03-05T12:04:24.108Z,101276.88
2023-03-05T12:06:54.323Z,101278.16
2023-03-05T12:09:50.903Z,101270.66
2023-03-05T12:12:27.192Z,101279.00
2023-03-05T12:14:57.694Z,101285.69
2023-03-05T12:17:35.231Z,101276.13
2023-03-05T12:20:16.924Z,101288.22
2023-03-05T12:22:47.314Z,101279.88
2023-03-05T12:25:26.395Z,101299.91
2023-03-05T12:27:56.718Z,101298.63
2023-03-05T12:30:35.752Z,101303.66
2023-03-05T12:33:09.310Z,101305.53
2023-03-05T12:35:41.137Z,101307.00
2023-03-05T12:38:30.465Z,101310.34
2023-03-05T12:41:19.413Z,101320.34
2023-03-05T12:44:10.233Z,101325.38
2023-03-05T12:46:44.472Z,101320.41
2023-03-05T12:49:28.554Z,101327.50
2023-03-05T12:52:00.592Z,101321.66
2023-03-05T12:54:36.873Z,101325.44
2023-03-05T12:57:20.714Z,101320.22
2023-03-05T12:59:50.999Z,101335.00
2023-03-05T13:02:24.777Z,101338.75
2023-03-05T13:04:59.194Z,101341.66
2023-03-05T13:07:29.499Z,101351.84
2023-03-05T13:10:01.170Z,101355.00
2023-03-05T13:12:32.020Z,101352.91
2023-03-05T13:15:02.156Z,101348.28
2023-03-05T13:17:33.210Z,101353.91
2023-03-05T13:20:07.694Z,101353.91
2023-03-05T13:22:40.405Z,101362.66
2023-03-05T13:25:11.168Z,101365.91
2023-03-05T13:27:41.448Z,101352.41
2023-03-05T13:30:31.429Z,101367.13
2023-03-05T13:33:05.410Z,101374.41
2023-03-05T13:35:36.391Z,101373.59
2023-03-05T13:38:06.636Z,101370.84
2023-03-05T13:40:37.344Z,101377.53
2023-03-05T13:43:14.616Z,101376.88
2023-03-05T13:45:45.992Z,101373.53
2023-03-05T13:48:21.521Z,101388.94
2023-03-05T13:50:59.665Z,101399.75
2023-03-05T13:53:31.766Z,101388.53
2023-03-05T13:56:03.515Z,101393.34
2023-03-05T13:58:43.241Z,101386.38
2023-03-05T14:01:22.262Z,101381.91
2023-03-05T14:03:55.338Z,101389.97
2023-03-05T14:06:26.935Z,101385.75
2023-03-05T14:09:03.419Z,101388.66
2023-03-05T14:11:33.683Z,101389.44
2023-03-05T14:14:22.489Z,101390.91
2023-03-05T14:16:53.140Z,101391.66
2023-03-05T14:19:33.102Z,101386.00
2023-03-05T14:22:03.833Z,101394.06
2023-03-05T14:24:35.617Z,101393.25
2023-03-05T14:27:15.611Z,101396.75
2023-03-05T14:29:47.064Z,101398.41
2023-03-05T14:32:24.909Z,101392.97
2023-03-05T14:34:59.261Z,101399.59
2023-03-05T14:37:41.047Z,101402.00
2023-03-05T14:40:13.996Z,101401.09
2023-03-05T14:42:54.563Z,101399.44
2023-03-05T14:45:27.569Z,101402.53
2023-03-05T14:48:00.214Z,101407.28
2023-03-05T14:50:32.711Z,101400.59
2023-03-05T14:53:09.486Z,101404.28
2023-03-05T14:55:39.956Z,101406.13
2023-03-05T14:58:14.536Z,101405.88
2023-03-05T15:00:45.321Z,101408.00
2023-03-05T15:03:17.636Z,101407.22
2023-03-05T15:05:49.105Z,101407.03
2023-03-05T15:08:31.401Z,101400.59
2023-03-05T15:11:01.820Z,101400.59
2023-03-05T15:13:33.203Z,101400.78
2023-03-05T15:16:06.290Z,101405.19
2023-03-05T15:18:36.712Z,101407.22
2023-03-05T15:21:07.030Z,101403.69
2023-03-05T15:23:39.594Z,101404.72
2023-03-05T15:26:11.286Z,101405.09
2023-03-05T15:28:41.703Z,101410.88
2023-03-05T15:31:12.077Z,101412.09
2023-03-05T15:33:43.315Z,101409.63
2023-03-05T15:36:13.639Z,101399.19
2023-03-05T15:38:44.576Z,101411.22
2023-03-05T15:41:15.379Z,101403.69
2023-03-05T15:43:45.632Z,101418.22
2023-03-05T15:46:16.125Z,101415.25
2023-03-05T15:48:51.353Z,101421.28
2023-03-05T15:51:22.794Z,101419.78
2023-03-05T15:53:53.481Z,101417.31
2023-03-05T15:56:24.266Z,101404.84
2023-03-05T15:58:55.431Z,101416.00
2023-03-05T16:01:25.688Z,101411.63
2023-03-05T16:03:55.870Z,101414.34
2023-03-05T16:06:26.854Z,101413.66
2023-03-05T16:09:04.955Z,101423.81
2023-03-05T16:11:37.720Z,101412.16
2023-03-05T16:14:10.101Z,101410.34
2023-03-05T16:16:40.967Z,101417.78
2023-03-05T16:19:12.509Z,101415.47
2023-03-05T16:21:43.448Z,101404.66
2023-03-05T16:24:14.203Z,101402.16
2023-03-05T16:26:45.265Z,101405.06
2023-03-05T16:29:15.566Z,101407.09
2023-03-05T16:31:46.882Z,101403.75
2023-03-05T16:34:17.700Z,101398.72
2023-03-05T16:36:54.103Z,101391.69
2023-03-05T16:39:24.600Z,101391.03
2023-03-05T16:41:55.232Z,101397.47
2023-03-05T16:44:25.429Z,101394.28
2023-03-05T16:46:57.725Z,101396.16
2023-03-05T16:49:27.883Z,101399.88
2023-03-05T16:52:01.329Z,101400.88
2023-03-05T16:54:38.368Z,101394.88
2023-03-05T16:57:10.373Z,101392.34
2023-03-05T16:59:40.833Z,101400.66
2023-03-05T17:02:11.537Z,101401.47
2023-03-05T17:04:42.603Z,101388.38
2023-03-05T17:07:13.302Z,101391.25
2023-03-05T17:09:45.748Z,101394.97
2023-03-05T17:12:16.415Z,101394.31
2023-03-05T17:14:46.677Z,101391.78
2023-03-05T17:17:16.832Z,101389.31
2023-03-05T17:19:47.207Z,101385.56
2023-03-05T17:22:18.032Z,101389.31
2023-03-05T17:24:49.443Z,101371.81
2023-03-05T17:27:24.078Z,101374.72
2023-03-05T17:29:54.263Z,101375.94
2023-03-05T17:32:24.488Z,101367.19
2023-03-05T17:34:56.271Z,101369.25
2023-03-05T17:37:26.468Z,101358.81
2023-03-05T17:39:56.656Z,101351.78
2023-03-05T17:42:26.909Z,101349.91
2023-03-05T17:44:57.457Z,101350.94
2023-03-05T17:47:28.426Z,101343.03
2023-03-05T17:49:58.628Z,101339.66
2023-03-05T17:52:29.103Z,101340.03
2023-03-05T17:54:59.360Z,101333.19
2023-03-05T17:57:29.605Z,101338.75
2023-03-05T17:59:59.893Z,101326.28
2023-03-05T18:02:30.329Z,101322.94
2023-03-05T18:05:02.121Z,101311.50
2023-03-05T18:07:34.590Z,101304.47
2023-03-05T18:10:05.550Z,101303.81
2023-03-05T18:12:36.550Z,101295.91
2023-03-05T18:15:08.012Z,101296.09
2023-03-05T18:17:38.550Z,101298.13
2023-03-05T18:20:09.654Z,101293.78
2023-03-05T18:22:39.829Z,101294.16
2023-03-05T18:25:10.339Z,101293.13
2023-03-05T18:27:41.141Z,101287.09
2023-03-05T18:30:11.675Z,101285.41
2023-03-05T18:32:41.852Z,101265.91
2023-03-05T18:35:12.493Z,101280.41
2023-03-05T18:37:42.785Z,101279.75
2023-03-05T18:40:19.214Z,101271.66
2023-03-05T18:42:49.738Z,101273.72
2023-03-05T18:45:21.115Z,101267.69
2023-03-05T18:47:55.439Z,101266.00
2023-03-05T18:50:26.694Z,101257.91
2023-03-05T18:52:57.648Z,101260.63
2023-03-05T18:55:29.431Z,101259.13
2023-03-05T18:57:59.810Z,101247.53
2023-03-05T19:00:31.564Z,101249.59
2023-03-05T19:03:02.062Z,101238.16
2023-03-05T19:05:33.014Z,101242.91
2023-03-05T19:08:03.590Z,101242.25
2023-03-05T19:10:34.304Z,101232.50
2023-03-05T19:13:36.354Z,101227.13
2023-03-05T19:16:26.048Z,101221.28
2023-03-05T19:19:18.048Z,101233.25
2023-03-05T19:21:50.124Z,101219.13
2023-03-05T19:24:20.365Z,101226.47
2023-03-05T19:26:51.577Z,101218.47
2023-03-05T19:29:22.211Z,101211.50
2023-03-05T19:31:52.803Z,101209.91
2023-03-05T19:34:23.479Z,101206.63
2023-03-05T19:36:53.658Z,101201.19
2023-03-05T19:39:23.877Z,101195.34
2023-03-05T19:41:54.081Z,101200.06
2023-03-05T19:44:24.409Z,101200.25
2023-03-05T19:46:54.857Z,101200.63
2023-03-05T19:49:25.612Z,101195.81
2023-03-05T19:51:55.803Z,101198.03
2023-03-05T19:54:26.258Z,101198.91
2023-03-05T19:56:57.243Z,101203.81
2023-03-05T19:59:27.573Z,101196.09
2023-03-05T20:01:58.708Z,101197.59
2023-03-05T20:04:29.666Z,101201.38
2023-03-05T20:06:59.948Z,101197.47
2023-03-05T20:09:30.122Z,101209.19
2023-03-05T20:12:04.013Z,101204.03
2023-03-05T20:14:34.318Z,101206.19
2023-03-05T20:17:04.924Z,101198.66
2023-03-05T20:19:35.060Z,101202.56
2023-03-05T20:22:05.300Z,101198.59
2023-03-05T20:24:35.427Z,101201.84
2023-03-05T20:27:05.658Z,101198.53
2023-03-05T20:29:36.233Z,101195.34
2023-03-05T20:32:06.542Z,101195.94
2023-03-05T20:34:37.455Z,101196.31
2023-03-05T20:37:07.683Z,101195.94
2023-03-05T20:39:37.801Z,101204.28
2023-03-05T20:42:08.211Z,101208.91
2023-03-05T20:44:38.485Z,101203.97
2023-03-05T20:47:47.986Z,101206.94
2023-03-05T20:50:19.090Z,101201.56
2023-03-05T20:52:49.390Z,101210.19
2023-03-05T20:55:20.146Z,101215.97
2023-03-05T20:57:50.312Z,101213.66
2023-03-05T21:00:21.088Z,101206.13
2023-03-05T21:02:53.147Z,101205.00
2023-03-05T21:05:24.666Z,101205.34
2023-03-05T21:07:55.059Z,101207.38
2023-03-05T21:10:25.552Z,101201.69
2023-03-05T21:12:56.359Z,101197.59
2023-03-05T21:15:27.913Z,101198.91
2023-03-05T21:17:58.425Z,101206.41
2023-03-05T21:20:30.532Z,101206.00
2023-03-05T21:23:00.857Z,101206.50
2023-03-05T21:25:31.828Z,101207.50
2023-03-05T21:28:05.006Z,101202.69
2023-03-05T21:30:40.564Z,101207.59
2023-03-05T21:33:13.116Z,101209.00
2023-03-05T21:35:43.720Z,101215.78
2023-03-05T21:38:14.458Z,101216.13
2023-03-05T21:40:46.918Z,101219.84
2023-03-05T21:43:19.271Z,101214.13
2023-03-05T21:45:49.580Z,101224.53
2023-03-05T21:48:19.943Z,101219.59
2023-03-05T21:50:50.783Z,101217.16
2023-03-05T21:53:21.629Z,101226.72
2023-03-05T21:56:21.229Z,101227.38
2023-03-05T21:58:51.889Z,101234.16
2023-03-05T22:01:22.537Z,101249.03
2023-03-05T22:03:52.876Z,101245.22
2023-03-05T22:06:23.231Z,101239.72
2023-03-05T22:08:53.515Z,101243.81
2023-03-05T22:11:23.803Z,101240.09
2023-03-05T22:13:54.026Z,101244.25
2023-03-05T22:16:27.981Z,101255.56
2023-03-05T22:18:58.203Z,101259.69
2023-03-05T22:21:29.211Z,101263.88
2023-03-05T22:24:00.006Z,101263.53
2023-03-05T22:26:37.462Z,101262.31
2023-03-05T22:29:11.102Z,101266.84
2023-03-05T22:31:41.966Z,101266.78
2023-03-05T22:34:12.393Z,101273.72
2023-03-05T22:36:42.670Z,101269.91
2023-03-05T22:39:12.810Z,101288.31
2023-03-05T22:41:43.810Z,101291.81
2023-03-05T22:44:14.003Z,101289.97
2023-03-05T22:46:45.755Z,101296.63
2023-03-05T22:49:16.350Z,101297.28
2023-03-05T22:51:46.597Z,101302.31
2023-03-05T22:54:16.709Z,101311.91
2023-03-05T22:56:46.866Z,101314.44
2023-03-05T22:59:17.155Z,101318.13
2023-03-05T23:01:47.619Z,101318.38
2023-03-05T23:05:01.825Z,101322.94
2023-03-05T23:07:33.508Z,101330.44
2023-03-05T23:10:05.733Z,101332.97
2023-03-05T23:12:36.941Z,101338.00
2023-03-05T23:15:08.596Z,101335.97
2023-03-05T23:17:39.388Z,101338.97
2023-03-05T23:20:11.654Z,101349.34
2023-03-05T23:22:41.858Z,101352.69
2023-03-05T23:25:12.771Z,101352.31
2023-03-05T23:27:43.798Z,101364.41
2023-03-05T23:30:23.006Z,101367.75
2023-03-05T23:32:55.017Z,101379.81
2023-03-05T23:35:29.815Z,101377.78
2023-03-05T23:38:01.249Z,101379.44
2023-03-05T23:40:32.875Z,101388.03
2023-03-05T23:43:03.312Z,101397.56
2023-03-05T23:45:33.709Z,101389.47
2023-03-05T23:48:04.606Z,101400.38
2023-03-05T23:50:36.030Z,101403.34
2023-03-05T23:53:06.829Z,101416.34
2023-03-05T23:55:44.425Z,101412.63
2023-03-05T23:58:14.900Z,101418.66
